sensor_id;sensor_type;location;lat;lon;timestamp;P1;durP1;ratioP1;P2;durP2;ratioP2
49998;SDS011;68071;45.062;7.356;2024-03-02T00:01:28;7.55;;;6.80;;
49998;SDS011;68071;45.062;7.356;2024-03-02T00:04:32;7.22;;;6.53;;
49998;SDS011;68071;45.062;7.356;2024-03-02T00:07:38;7.30;;;6.60;;
49998;SDS011;68071;45.062;7.356;2024-03-02T00:10:46;8.07;;;7.28;;
49998;SDS011;68071;45.062;7.356;2024-03-02T00:13:52;8.55;;;7.75;;
49998;SDS011;68071;45.062;7.356;2024-03-02T00:16:56;10.35;;;9.35;;
49998;SDS011;68071;45.062;7.356;2024-03-02T00:20:01;12.73;;;11.50;;
49998;SDS011;68071;45.062;7.356;2024-03-02T00:23:09;14.13;;;12.73;;
49998;SDS011;68071;45.062;7.356;2024-03-02T00:26:18;15.73;;;14.18;;
49998;SDS011;68071;45.062;7.356;2024-03-02T00:29:29;14.35;;;12.95;;
49998;SDS011;68071;45.062;7.356;2024-03-02T00:32:33;14.38;;;12.95;;
49998;SDS011;68071;45.062;7.356;2024-03-02T00:35:38;17.25;;;15.52;;
49998;SDS011;68071;45.062;7.356;2024-03-02T00:38:49;10.35;;;9.45;;
49998;SDS011;68071;45.062;7.356;2024-03-02T00:41:54;9.18;;;8.38;;
49998;SDS011;68071;45.062;7.356;2024-03-02T00:44:58;12.15;;;11.02;;
49998;SDS011;68071;45.062;7.356;2024-03-02T00:48:02;14.65;;;13.18;;
49998;SDS011;68071;45.062;7.356;2024-03-02T00:51:08;17.08;;;15.43;;
49998;SDS011;68071;45.062;7.356;2024-03-02T00:54:13;17.27;;;15.48;;
49998;SDS011;68071;45.062;7.356;2024-03-02T00:57:17;15.00;;;13.40;;
49998;SDS011;68071;45.062;7.356;2024-03-02T01:00:22;13.57;;;11.93;;
49998;SDS011;68071;45.062;7.356;2024-03-02T01:03:26;6.63;;;5.53;;
49998;SDS011;68071;45.062;7.356;2024-03-02T01:06:30;8.35;;;7.47;;
49998;SDS011;68071;45.062;7.356;2024-03-02T01:09:34;12.10;;;10.90;;
49998;SDS011;68071;45.062;7.356;2024-03-02T01:12:38;7.45;;;6.75;;
49998;SDS011;68071;45.062;7.356;2024-03-02T01:15:43;9.68;;;8.68;;
49998;SDS011;68071;45.062;7.356;2024-03-02T01:18:56;10.73;;;9.63;;
49998;SDS011;68071;45.062;7.356;2024-03-02T01:22:04;9.30;;;8.40;;
49998;SDS011;68071;45.062;7.356;2024-03-02T01:25:08;9.68;;;8.77;;
49998;SDS011;68071;45.062;7.356;2024-03-02T01:28:22;8.60;;;5.40;;
49998;SDS011;68071;45.062;7.356;2024-03-02T01:31:28;10.32;;;6.53;;
49998;SDS011;68071;45.062;7.356;2024-03-02T01:34:35;11.98;;;10.77;;
49998;SDS011;68071;45.062;7.356;2024-03-02T01:37:38;8.27;;;7.47;;
49998;SDS011;68071;45.062;7.356;2024-03-02T01:40:43;5.03;;;4.53;;
49998;SDS011;68071;45.062;7.356;2024-03-02T01:43:50;5.68;;;4.60;;
49998;SDS011;68071;45.062;7.356;2024-03-02T01:46:54;4.82;;;4.32;;
49998;SDS011;68071;45.062;7.356;2024-03-02T01:49:58;5.15;;;4.72;;
49998;SDS011;68071;45.062;7.356;2024-03-02T01:53:02;5.75;;;4.90;;
49998;SDS011;68071;45.062;7.356;2024-03-02T01:56:07;5.65;;;5.03;;
49998;SDS011;68071;45.062;7.356;2024-03-02T01:59:12;3.17;;;2.05;;
49998;SDS011;68071;45.062;7.356;2024-03-02T02:02:18;3.17;;;2.17;;
49998;SDS011;68071;45.062;7.356;2024-03-02T02:05:23;9.70;;;8.70;;
49998;SDS011;68071;45.062;7.356;2024-03-02T02:08:28;8.82;;;6.53;;
49998;SDS011;68071;45.062;7.356;2024-03-02T02:11:32;3.22;;;2.25;;
49998;SDS011;68071;45.062;7.356;2024-03-02T02:14:37;2.07;;;1.57;;
49998;SDS011;68071;45.062;7.356;2024-03-02T02:17:43;2.80;;;2.50;;
49998;SDS011;68071;45.062;7.356;2024-03-02T02:20:47;3.80;;;3.40;;
49998;SDS011;68071;45.062;7.356;2024-03-02T02:23:52;4.53;;;3.90;;
49998;SDS011;68071;45.062;7.356;2024-03-02T02:26:57;3.42;;;2.83;;
49998;SDS011;68071;45.062;7.356;2024-03-02T02:30:03;4.15;;;1.98;;
49998;SDS011;68071;45.062;7.356;2024-03-02T02:33:07;5.45;;;2.00;;
49998;SDS011;68071;45.062;7.356;2024-03-02T02:36:12;3.75;;;1.83;;
49998;SDS011;68071;45.062;7.356;2024-03-02T02:39:17;5.88;;;3.17;;
49998;SDS011;68071;45.062;7.356;2024-03-02T02:42:24;4.43;;;4.03;;
49998;SDS011;68071;45.062;7.356;2024-03-02T02:45:28;4.10;;;3.10;;
49998;SDS011;68071;45.062;7.356;2024-03-02T02:48:32;3.85;;;2.33;;
49998;SDS011;68071;45.062;7.356;2024-03-02T02:51:36;2.72;;;1.65;;
49998;SDS011;68071;45.062;7.356;2024-03-02T02:54:40;2.10;;;1.30;;
49998;SDS011;68071;45.062;7.356;2024-03-02T02:57:44;4.00;;;2.10;;
49998;SDS011;68071;45.062;7.356;2024-03-02T03:00:49;3.50;;;2.90;;
49998;SDS011;68071;45.062;7.356;2024-03-02T03:03:53;4.13;;;3.63;;
49998;SDS011;68071;45.062;7.356;2024-03-02T03:06:57;2.92;;;1.80;;
49998;SDS011;68071;45.062;7.356;2024-03-02T03:10:04;2.63;;;1.60;;
49998;SDS011;68071;45.062;7.356;2024-03-02T03:13:12;2.35;;;1.38;;
49998;SDS011;68071;45.062;7.356;2024-03-02T03:16:16;2.10;;;1.45;;
49998;SDS011;68071;45.062;7.356;2024-03-02T03:19:20;2.00;;;1.50;;
49998;SDS011;68071;45.062;7.356;2024-03-02T03:22:25;3.47;;;2.65;;
49998;SDS011;68071;45.062;7.356;2024-03-02T03:25:29;3.10;;;2.70;;
49998;SDS011;68071;45.062;7.356;2024-03-02T03:28:33;3.33;;;2.78;;
49998;SDS011;68071;45.062;7.356;2024-03-02T03:31:38;2.40;;;1.95;;
49998;SDS011;68071;45.062;7.356;2024-03-02T03:34:42;3.08;;;2.60;;
49998;SDS011;68071;45.062;7.356;2024-03-02T03:37:46;3.95;;;3.55;;
49998;SDS011;68071;45.062;7.356;2024-03-02T03:40:50;4.47;;;4.07;;
49998;SDS011;68071;45.062;7.356;2024-03-02T03:43:54;7.55;;;6.35;;
49998;SDS011;68071;45.062;7.356;2024-03-02T03:46:58;5.78;;;4.22;;
49998;SDS011;68071;45.062;7.356;2024-03-02T03:50:05;5.97;;;5.18;;
49998;SDS011;68071;45.062;7.356;2024-03-02T03:53:11;3.85;;;3.50;;
49998;SDS011;68071;45.062;7.356;2024-03-02T04:29:26;3.35;;;2.15;;
49998;SDS011;68071;45.062;7.356;2024-03-02T04:32:29;2.97;;;2.35;;
49998;SDS011;68071;45.062;7.356;2024-03-02T04:35:34;3.40;;;2.40;;
49998;SDS011;68071;45.062;7.356;2024-03-02T04:38:38;4.72;;;2.58;;
49998;SDS011;68071;45.062;7.356;2024-03-02T04:41:44;3.55;;;2.42;;
49998;SDS011;68071;45.062;7.356;2024-03-02T04:44:48;3.67;;;2.58;;
49998;SDS011;68071;45.062;7.356;2024-03-02T04:47:53;5.10;;;4.20;;
49998;SDS011;68071;45.062;7.356;2024-03-02T04:50:57;4.32;;;3.20;;
49998;SDS011;68071;45.062;7.356;2024-03-02T04:54:01;3.42;;;2.60;;
49998;SDS011;68071;45.062;7.356;2024-03-02T04:57:05;3.83;;;2.95;;
49998;SDS011;68071;45.062;7.356;2024-03-02T05:00:09;4.30;;;3.75;;
49998;SDS011;68071;45.062;7.356;2024-03-02T05:03:15;4.13;;;3.72;;
49998;SDS011;68071;45.062;7.356;2024-03-02T05:06:20;3.65;;;2.78;;
49998;SDS011;68071;45.062;7.356;2024-03-02T05:09:27;3.97;;;2.97;;
49998;SDS011;68071;45.062;7.356;2024-03-02T05:12:31;2.55;;;2.13;;
49998;SDS011;68071;45.062;7.356;2024-03-02T05:19:02;3.03;;;2.35;;
49998;SDS011;68071;45.062;7.356;2024-03-02T05:22:06;2.75;;;1.88;;
49998;SDS011;68071;45.062;7.356;2024-03-02T05:25:10;2.38;;;2.10;;
49998;SDS011;68071;45.062;7.356;2024-03-02T05:28:14;3.20;;;2.67;;
49998;SDS011;68071;45.062;7.356;2024-03-02T05:31:18;3.05;;;2.65;;
49998;SDS011;68071;45.062;7.356;2024-03-02T05:34:22;3.13;;;2.83;;
49998;SDS011;68071;45.062;7.356;2024-03-02T05:37:26;4.50;;;3.78;;
49998;SDS011;68071;45.062;7.356;2024-03-02T05:40:30;4.00;;;3.40;;
49998;SDS011;68071;45.062;7.356;2024-03-02T05:43:34;4.88;;;3.22;;
49998;SDS011;68071;45.062;7.356;2024-03-02T05:46:38;3.20;;;2.83;;
49998;SDS011;68071;45.062;7.356;2024-03-02T05:49:42;5.90;;;4.50;;
49998;SDS011;68071;45.062;7.356;2024-03-02T05:52:47;6.00;;;5.35;;
49998;SDS011;68071;45.062;7.356;2024-03-02T05:55:51;5.68;;;4.60;;
49998;SDS011;68071;45.062;7.356;2024-03-02T05:58:58;4.15;;;3.75;;
49998;SDS011;68071;45.062;7.356;2024-03-02T06:02:19;4.55;;;3.92;;
49998;SDS011;68071;45.062;7.356;2024-03-02T06:05:23;4.68;;;3.47;;
49998;SDS011;68071;45.062;7.356;2024-03-02T06:08:27;4.38;;;3.45;;
49998;SDS011;68071;45.062;7.356;2024-03-02T06:11:31;4.55;;;2.90;;
49998;SDS011;68071;45.062;7.356;2024-03-02T06:14:35;3.50;;;3.00;;
49998;SDS011;68071;45.062;7.356;2024-03-02T06:17:39;4.35;;;3.33;;
49998;SDS011;68071;45.062;7.356;2024-03-02T06:20:43;5.10;;;3.63;;
49998;SDS011;68071;45.062;7.356;2024-03-02T06:23:47;3.58;;;3.28;;
49998;SDS011;68071;45.062;7.356;2024-03-02T06:26:51;4.18;;;3.53;;
49998;SDS011;68071;45.062;7.356;2024-03-02T06:29:55;3.25;;;2.95;;
49998;SDS011;68071;45.062;7.356;2024-03-02T06:32:59;4.57;;;2.70;;
49998;SDS011;68071;45.062;7.356;2024-03-02T06:36:03;2.45;;;2.25;;
49998;SDS011;68071;45.062;7.356;2024-03-02T06:39:08;2.80;;;2.60;;
49998;SDS011;68071;45.062;7.356;2024-03-02T06:42:14;3.53;;;2.65;;
49998;SDS011;68071;45.062;7.356;2024-03-02T06:45:18;3.35;;;3.05;;
49998;SDS011;68071;45.062;7.356;2024-03-02T06:48:22;4.50;;;3.60;;
49998;SDS011;68071;45.062;7.356;2024-03-02T06:54:31;3.13;;;2.85;;
49998;SDS011;68071;45.062;7.356;2024-03-02T06:57:36;3.40;;;2.60;;
49998;SDS011;68071;45.062;7.356;2024-03-02T07:00:42;3.95;;;2.35;;
49998;SDS011;68071;45.062;7.356;2024-03-02T07:03:47;3.33;;;2.40;;
49998;SDS011;68071;45.062;7.356;2024-03-02T07:06:52;2.65;;;2.45;;
49998;SDS011;68071;45.062;7.356;2024-03-02T07:09:56;9.07;;;3.53;;
49998;SDS011;68071;45.062;7.356;2024-03-02T07:13:00;11.25;;;3.50;;
49998;SDS011;68071;45.062;7.356;2024-03-02T07:16:04;4.20;;;3.75;;
49998;SDS011;68071;45.062;7.356;2024-03-02T07:19:27;4.28;;;3.10;;
49998;SDS011;68071;45.062;7.356;2024-03-02T07:22:31;4.80;;;3.33;;
49998;SDS011;68071;45.062;7.356;2024-03-02T07:25:35;3.53;;;2.92;;
49998;SDS011;68071;45.062;7.356;2024-03-02T07:28:39;3.58;;;2.95;;
49998;SDS011;68071;45.062;7.356;2024-03-02T07:31:44;4.13;;;3.72;;
49998;SDS011;68071;45.062;7.356;2024-03-02T07:34:48;4.25;;;3.60;;
49998;SDS011;68071;45.062;7.356;2024-03-02T07:37:52;3.50;;;3.20;;
49998;SDS011;68071;45.062;7.356;2024-03-02T07:40:55;4.32;;;3.30;;
49998;SDS011;68071;45.062;7.356;2024-03-02T07:44:00;4.32;;;3.92;;
49998;SDS011;68071;45.062;7.356;2024-03-02T07:47:04;4.45;;;3.97;;
49998;SDS011;68071;45.062;7.356;2024-03-02T07:50:09;3.42;;;3.13;;
49998;SDS011;68071;45.062;7.356;2024-03-02T07:53:13;3.55;;;3.10;;
49998;SDS011;68071;45.062;7.356;2024-03-02T07:56:17;3.50;;;3.20;;
49998;SDS011;68071;45.062;7.356;2024-03-02T07:59:25;4.18;;;3.78;;
49998;SDS011;68071;45.062;7.356;2024-03-02T08:02:30;4.10;;;3.70;;
49998;SDS011;68071;45.062;7.356;2024-03-02T08:05:34;4.22;;;3.80;;
49998;SDS011;68071;45.062;7.356;2024-03-02T08:08:38;4.07;;;3.53;;
49998;SDS011;68071;45.062;7.356;2024-03-02T08:11:42;3.77;;;3.27;;
49998;SDS011;68071;45.062;7.356;2024-03-02T08:14:46;4.38;;;3.97;;
49998;SDS011;68071;45.062;7.356;2024-03-02T08:29:02;3.78;;;2.80;;
49998;SDS011;68071;45.062;7.356;2024-03-02T08:32:07;4.45;;;2.85;;
49998;SDS011;68071;45.062;7.356;2024-03-02T08:35:11;4.10;;;3.35;;
49998;SDS011;68071;45.062;7.356;2024-03-02T08:38:15;3.28;;;2.80;;
49998;SDS011;68071;45.062;7.356;2024-03-02T08:41:20;4.13;;;2.85;;
49998;SDS011;68071;45.062;7.356;2024-03-02T08:44:24;3.00;;;2.70;;
49998;SDS011;68071;45.062;7.356;2024-03-02T08:47:29;3.83;;;2.47;;
49998;SDS011;68071;45.062;7.356;2024-03-02T08:50:33;4.20;;;3.35;;
49998;SDS011;68071;45.062;7.356;2024-03-02T08:53:37;3.42;;;2.60;;
49998;SDS011;68071;45.062;7.356;2024-03-02T08:56:42;3.45;;;2.20;;
49998;SDS011;68071;45.062;7.356;2024-03-02T08:59:46;4.15;;;2.88;;
49998;SDS011;68071;45.062;7.356;2024-03-02T09:02:50;5.50;;;5.00;;
49998;SDS011;68071;45.062;7.356;2024-03-02T09:05:55;5.20;;;4.70;;
49998;SDS011;68071;45.062;7.356;2024-03-02T09:08:59;5.70;;;4.95;;
49998;SDS011;68071;45.062;7.356;2024-03-02T09:12:03;4.90;;;4.40;;
49998;SDS011;68071;45.062;7.356;2024-03-02T09:15:08;6.20;;;5.10;;
49998;SDS011;68071;45.062;7.356;2024-03-02T09:18:12;6.40;;;5.80;;
49998;SDS011;68071;45.062;7.356;2024-03-02T09:21:17;6.03;;;5.43;;
49998;SDS011;68071;45.062;7.356;2024-03-02T09:24:21;6.93;;;6.22;;
49998;SDS011;68071;45.062;7.356;2024-03-02T09:27:25;6.97;;;6.38;;
49998;SDS011;68071;45.062;7.356;2024-03-02T09:30:29;6.68;;;6.03;;
49998;SDS011;68071;45.062;7.356;2024-03-02T09:33:33;8.75;;;6.97;;
49998;SDS011;68071;45.062;7.356;2024-03-02T09:36:37;7.25;;;6.55;;
49998;SDS011;68071;45.062;7.356;2024-03-02T09:39:43;8.10;;;6.20;;
49998;SDS011;68071;45.062;7.356;2024-03-02T09:42:48;7.25;;;6.32;;
49998;SDS011;68071;45.062;7.356;2024-03-02T09:45:56;6.22;;;5.63;;
49998;SDS011;68071;45.062;7.356;2024-03-02T09:49:00;6.95;;;6.22;;
49998;SDS011;68071;45.062;7.356;2024-03-02T09:52:04;6.80;;;5.90;;
49998;SDS011;68071;45.062;7.356;2024-03-02T09:55:09;7.63;;;6.07;;
49998;SDS011;68071;45.062;7.356;2024-03-02T09:58:15;6.10;;;5.35;;
49998;SDS011;68071;45.062;7.356;2024-03-02T10:01:19;27.25;;;24.33;;
49998;SDS011;68071;45.062;7.356;2024-03-02T10:04:23;7.50;;;6.07;;
49998;SDS011;68071;45.062;7.356;2024-03-02T10:07:30;6.28;;;5.68;;
49998;SDS011;68071;45.062;7.356;2024-03-02T10:10:37;11.63;;;9.68;;
49998;SDS011;68071;45.062;7.356;2024-03-02T10:13:46;8.32;;;6.47;;
49998;SDS011;68071;45.062;7.356;2024-03-02T10:16:52;6.07;;;5.55;;
49998;SDS011;68071;45.062;7.356;2024-03-02T10:19:58;6.40;;;4.55;;
49998;SDS011;68071;45.062;7.356;2024-03-02T10:23:12;4.65;;;4.13;;
49998;SDS011;68071;45.062;7.356;2024-03-02T10:26:20;4.60;;;3.58;;
49998;SDS011;68071;45.062;7.356;2024-03-02T10:29:24;5.35;;;3.78;;
49998;SDS011;68071;45.062;7.356;2024-03-02T10:32:31;3.72;;;2.85;;
49998;SDS011;68071;45.062;7.356;2024-03-02T10:35:37;4.18;;;3.80;;
49998;SDS011;68071;45.062;7.356;2024-03-02T10:41:47;4.03;;;3.63;;
49998;SDS011;68071;45.062;7.356;2024-03-02T10:44:53;3.97;;;3.67;;
49998;SDS011;68071;45.062;7.356;2024-03-02T10:47:57;8.18;;;4.20;;
49998;SDS011;68071;45.062;7.356;2024-03-02T10:51:01;4.05;;;3.65;;
49998;SDS011;68071;45.062;7.356;2024-03-02T10:54:06;5.13;;;3.50;;
49998;SDS011;68071;45.062;7.356;2024-03-02T10:57:10;4.75;;;3.58;;
49998;SDS011;68071;45.062;7.356;2024-03-02T11:00:17;5.97;;;3.72;;
49998;SDS011;68071;45.062;7.356;2024-03-02T11:03:23;12.23;;;5.00;;
49998;SDS011;68071;45.062;7.356;2024-03-02T11:06:28;3.20;;;2.90;;
49998;SDS011;68071;45.062;7.356;2024-03-02T11:09:33;3.42;;;3.00;;
49998;SDS011;68071;45.062;7.356;2024-03-02T11:12:39;4.38;;;3.47;;
49998;SDS011;68071;45.062;7.356;2024-03-02T11:15:53;6.18;;;3.58;;
49998;SDS011;68071;45.062;7.356;2024-03-02T11:19:06;4.53;;;3.60;;
49998;SDS011;68071;45.062;7.356;2024-03-02T11:22:13;3.50;;;2.88;;
49998;SDS011;68071;45.062;7.356;2024-03-02T11:28:36;5.22;;;3.53;;
49998;SDS011;68071;45.062;7.356;2024-03-02T11:31:58;4.55;;;3.97;;
49998;SDS011;68071;45.062;7.356;2024-03-02T11:35:03;5.97;;;4.38;;
49998;SDS011;68071;45.062;7.356;2024-03-02T11:38:09;7.00;;;5.57;;
49998;SDS011;68071;45.062;7.356;2024-03-02T11:41:13;6.72;;;6.07;;
49998;SDS011;68071;45.062;7.356;2024-03-02T11:44:18;6.82;;;6.13;;
49998;SDS011;68071;45.062;7.356;2024-03-02T11:47:22;7.78;;;5.53;;
49998;SDS011;68071;45.062;7.356;2024-03-02T11:50:30;8.45;;;7.68;;
49998;SDS011;68071;45.062;7.356;2024-03-02T11:53:38;7.88;;;7.05;;
49998;SDS011;68071;45.062;7.356;2024-03-02T11:56:42;9.50;;;8.60;;
49998;SDS011;68071;45.062;7.356;2024-03-02T11:59:47;9.57;;;8.68;;
49998;SDS011;68071;45.062;7.356;2024-03-02T12:03:26;11.18;;;9.93;;
49998;SDS011;68071;45.062;7.356;2024-03-02T12:06:24;9.90;;;9.00;;
49998;SDS011;68071;45.062;7.356;2024-03-02T12:09:29;10.48;;;9.40;;
49998;SDS011;68071;45.062;7.356;2024-03-02T12:29:25;11.02;;;9.93;;
49998;SDS011;68071;45.062;7.356;2024-03-02T12:32:30;12.57;;;11.48;;
49998;SDS011;68071;45.062;7.356;2024-03-02T12:35:35;11.55;;;10.60;;
49998;SDS011;68071;45.062;7.356;2024-03-02T12:38:43;9.32;;;8.52;;
49998;SDS011;68071;45.062;7.356;2024-03-02T12:41:49;10.57;;;9.57;;
49998;SDS011;68071;45.062;7.356;2024-03-02T12:44:57;10.75;;;9.75;;
49998;SDS011;68071;45.062;7.356;2024-03-02T12:48:02;11.75;;;10.52;;
49998;SDS011;68071;45.062;7.356;2024-03-02T12:51:08;11.10;;;10.10;;
49998;SDS011;68071;45.062;7.356;2024-03-02T12:54:12;10.73;;;9.82;;
49998;SDS011;68071;45.062;7.356;2024-03-02T12:57:18;11.55;;;10.57;;
49998;SDS011;68071;45.062;7.356;2024-03-02T13:00:23;11.40;;;10.30;;
49998;SDS011;68071;45.062;7.356;2024-03-02T13:03:28;11.02;;;9.95;;
49998;SDS011;68071;45.062;7.356;2024-03-02T13:06:32;9.35;;;8.48;;
49998;SDS011;68071;45.062;7.356;2024-03-02T13:09:37;10.93;;;9.93;;
49998;SDS011;68071;45.062;7.356;2024-03-02T13:12:41;8.82;;;7.97;;
49998;SDS011;68071;45.062;7.356;2024-03-02T13:15:46;8.65;;;7.95;;
49998;SDS011;68071;45.062;7.356;2024-03-02T13:18:50;8.52;;;7.82;;
49998;SDS011;68071;45.062;7.356;2024-03-02T13:21:55;6.78;;;6.13;;
49998;SDS011;68071;45.062;7.356;2024-03-02T13:24:59;6.60;;;6.00;;
49998;SDS011;68071;45.062;7.356;2024-03-02T13:31:09;6.68;;;5.60;;
49998;SDS011;68071;45.062;7.356;2024-03-02T13:34:14;4.97;;;4.57;;
49998;SDS011;68071;45.062;7.356;2024-03-02T13:37:19;4.25;;;3.85;;
49998;SDS011;68071;45.062;7.356;2024-03-02T13:43:28;4.40;;;4.00;;
49998;SDS011;68071;45.062;7.356;2024-03-02T13:46:35;3.83;;;3.42;;
49998;SDS011;68071;45.062;7.356;2024-03-02T13:49:39;3.60;;;3.30;;
49998;SDS011;68071;45.062;7.356;2024-03-02T13:52:47;4.20;;;3.80;;
49998;SDS011;68071;45.062;7.356;2024-03-02T13:55:51;3.90;;;3.25;;
49998;SDS011;68071;45.062;7.356;2024-03-02T13:58:55;4.05;;;3.70;;
49998;SDS011;68071;45.062;7.356;2024-03-02T14:01:59;3.40;;;3.10;;
49998;SDS011;68071;45.062;7.356;2024-03-02T14:05:04;3.38;;;3.08;;
49998;SDS011;68071;45.062;7.356;2024-03-02T14:08:08;3.78;;;3.20;;
49998;SDS011;68071;45.062;7.356;2024-03-02T14:11:12;3.85;;;3.55;;
49998;SDS011;68071;45.062;7.356;2024-03-02T14:14:18;3.92;;;3.42;;
49998;SDS011;68071;45.062;7.356;2024-03-02T14:17:23;3.25;;;2.78;;
49998;SDS011;68071;45.062;7.356;2024-03-02T14:20:28;4.03;;;3.63;;
49998;SDS011;68071;45.062;7.356;2024-03-02T14:23:32;3.40;;;3.10;;
49998;SDS011;68071;45.062;7.356;2024-03-02T14:26:36;3.30;;;3.00;;
49998;SDS011;68071;45.062;7.356;2024-03-02T14:29:42;7.13;;;4.80;;
49998;SDS011;68071;45.062;7.356;2024-03-02T14:32:46;3.17;;;2.88;;
49998;SDS011;68071;45.062;7.356;2024-03-02T14:35:50;4.25;;;3.85;;
49998;SDS011;68071;45.062;7.356;2024-03-02T14:38:54;3.88;;;3.58;;
49998;SDS011;68071;45.062;7.356;2024-03-02T14:41:59;3.58;;;3.10;;
49998;SDS011;68071;45.062;7.356;2024-03-02T14:45:03;4.10;;;3.70;;
49998;SDS011;68071;45.062;7.356;2024-03-02T14:48:08;5.55;;;5.10;;
49998;SDS011;68071;45.062;7.356;2024-03-02T14:51:13;4.15;;;3.75;;
49998;SDS011;68071;45.062;7.356;2024-03-02T14:54:18;4.28;;;3.92;;
49998;SDS011;68071;45.062;7.356;2024-03-02T14:57:21;4.10;;;3.63;;
49998;SDS011;68071;45.062;7.356;2024-03-02T15:00:25;3.55;;;3.25;;
49998;SDS011;68071;45.062;7.356;2024-03-02T15:03:31;3.20;;;2.60;;
49998;SDS011;68071;45.062;7.356;2024-03-02T15:06:36;3.15;;;2.85;;
49998;SDS011;68071;45.062;7.356;2024-03-02T15:09:40;3.80;;;3.50;;
49998;SDS011;68071;45.062;7.356;2024-03-02T15:12:44;3.67;;;3.38;;
49998;SDS011;68071;45.062;7.356;2024-03-02T15:15:48;4.00;;;3.70;;
49998;SDS011;68071;45.062;7.356;2024-03-02T15:18:53;4.00;;;3.70;;
49998;SDS011;68071;45.062;7.356;2024-03-02T15:21:56;5.60;;;4.78;;
49998;SDS011;68071;45.062;7.356;2024-03-02T15:25:01;5.00;;;4.60;;
49998;SDS011;68071;45.062;7.356;2024-03-02T15:28:05;5.20;;;4.70;;
49998;SDS011;68071;45.062;7.356;2024-03-02T15:31:09;5.18;;;4.78;;
49998;SDS011;68071;45.062;7.356;2024-03-02T15:34:13;8.90;;;8.20;;
49998;SDS011;68071;45.062;7.356;2024-03-02T15:37:17;6.68;;;6.07;;
49998;SDS011;68071;45.062;7.356;2024-03-02T15:40:22;7.43;;;6.78;;
49998;SDS011;68071;45.062;7.356;2024-03-02T15:43:26;6.90;;;6.30;;
49998;SDS011;68071;45.062;7.356;2024-03-02T15:46:30;7.00;;;6.40;;
49998;SDS011;68071;45.062;7.356;2024-03-02T15:49:35;7.90;;;7.18;;
49998;SDS011;68071;45.062;7.356;2024-03-02T15:52:39;8.25;;;7.45;;
49998;SDS011;68071;45.062;7.356;2024-03-02T15:55:42;8.57;;;7.85;;
49998;SDS011;68071;45.062;7.356;2024-03-02T15:58:47;7.95;;;7.25;;
49998;SDS011;68071;45.062;7.356;2024-03-02T16:01:51;9.13;;;8.30;;
49998;SDS011;68071;45.062;7.356;2024-03-02T16:05:00;10.65;;;9.45;;
49998;SDS011;68071;45.062;7.356;2024-03-02T16:08:05;12.02;;;10.82;;
49998;SDS011;68071;45.062;7.356;2024-03-02T16:11:09;10.70;;;9.68;;
49998;SDS011;68071;45.062;7.356;2024-03-02T16:14:13;10.80;;;9.80;;
49998;SDS011;68071;45.062;7.356;2024-03-02T16:17:18;13.67;;;12.27;;
49998;SDS011;68071;45.062;7.356;2024-03-02T16:20:22;16.02;;;14.32;;
49998;SDS011;68071;45.062;7.356;2024-03-02T16:23:27;14.10;;;12.68;;
49998;SDS011;68071;45.062;7.356;2024-03-02T16:26:31;14.50;;;13.10;;
49998;SDS011;68071;45.062;7.356;2024-03-02T16:29:35;15.05;;;13.55;;
49998;SDS011;68071;45.062;7.356;2024-03-02T16:32:39;13.90;;;12.50;;
49998;SDS011;68071;45.062;7.356;2024-03-02T16:35:43;12.90;;;11.70;;
49998;SDS011;68071;45.062;7.356;2024-03-02T16:38:51;12.88;;;11.57;;
49998;SDS011;68071;45.062;7.356;2024-03-02T16:41:56;12.52;;;11.32;;
49998;SDS011;68071;45.062;7.356;2024-03-02T16:45:00;11.85;;;10.75;;
49998;SDS011;68071;45.062;7.356;2024-03-02T16:48:04;11.75;;;10.65;;
49998;SDS011;68071;45.062;7.356;2024-03-02T16:51:08;13.38;;;11.98;;
49998;SDS011;68071;45.062;7.356;2024-03-02T16:54:12;10.75;;;9.75;;
49998;SDS011;68071;45.062;7.356;2024-03-02T16:57:17;10.52;;;9.45;;
49998;SDS011;68071;45.062;7.356;2024-03-02T17:00:21;10.43;;;9.45;;
49998;SDS011;68071;45.062;7.356;2024-03-02T17:03:25;11.15;;;10.05;;
49998;SDS011;68071;45.062;7.356;2024-03-02T17:06:29;11.80;;;10.70;;
49998;SDS011;68071;45.062;7.356;2024-03-02T17:09:37;12.35;;;11.25;;
49998;SDS011;68071;45.062;7.356;2024-03-02T17:12:41;12.02;;;10.82;;
49998;SDS011;68071;45.062;7.356;2024-03-02T17:15:46;11.65;;;10.48;;
49998;SDS011;68071;45.062;7.356;2024-03-02T17:18:50;11.60;;;10.57;;
49998;SDS011;68071;45.062;7.356;2024-03-02T17:21:55;12.93;;;11.68;;
49998;SDS011;68071;45.062;7.356;2024-03-02T17:24:59;13.05;;;11.70;;
49998;SDS011;68071;45.062;7.356;2024-03-02T17:28:21;11.88;;;10.77;;
49998;SDS011;68071;45.062;7.356;2024-03-02T17:31:26;9.25;;;8.38;;
49998;SDS011;68071;45.062;7.356;2024-03-02T17:34:30;8.68;;;7.97;;
49998;SDS011;68071;45.062;7.356;2024-03-02T17:37:34;9.20;;;8.30;;
49998;SDS011;68071;45.062;7.356;2024-03-02T17:40:41;8.95;;;8.05;;
49998;SDS011;68071;45.062;7.356;2024-03-02T17:43:46;9.35;;;8.45;;
49998;SDS011;68071;45.062;7.356;2024-03-02T17:46:50;8.95;;;8.05;;
49998;SDS011;68071;45.062;7.356;2024-03-02T17:49:55;8.57;;;7.78;;
49998;SDS011;68071;45.062;7.356;2024-03-02T17:52:59;8.18;;;7.43;;
49998;SDS011;68071;45.062;7.356;2024-03-02T17:56:03;8.50;;;7.70;;
49998;SDS011;68071;45.062;7.356;2024-03-02T17:59:08;8.80;;;8.00;;
49998;SDS011;68071;45.062;7.356;2024-03-02T18:02:11;7.93;;;7.22;;
49998;SDS011;68071;45.062;7.356;2024-03-02T18:05:16;9.20;;;8.30;;
49998;SDS011;68071;45.062;7.356;2024-03-02T18:08:21;10.95;;;9.95;;
49998;SDS011;68071;45.062;7.356;2024-03-02T18:11:25;11.52;;;10.32;;
49998;SDS011;68071;45.062;7.356;2024-03-02T18:14:28;12.23;;;11.02;;
49998;SDS011;68071;45.062;7.356;2024-03-02T18:17:36;10.65;;;9.57;;
49998;SDS011;68071;45.062;7.356;2024-03-02T18:20:40;12.15;;;10.95;;
49998;SDS011;68071;45.062;7.356;2024-03-02T18:23:44;10.77;;;9.77;;
49998;SDS011;68071;45.062;7.356;2024-03-02T18:26:48;10.45;;;9.45;;
49998;SDS011;68071;45.062;7.356;2024-03-02T18:29:52;13.88;;;12.63;;
49998;SDS011;68071;45.062;7.356;2024-03-02T18:32:57;27.95;;;24.92;;
49998;SDS011;68071;45.062;7.356;2024-03-02T18:36:01;33.13;;;29.63;;
49998;SDS011;68071;45.062;7.356;2024-03-02T18:39:07;20.73;;;18.77;;
49998;SDS011;68071;45.062;7.356;2024-03-02T18:42:13;15.15;;;13.75;;
49998;SDS011;68071;45.062;7.356;2024-03-02T18:45:17;13.93;;;12.63;;
49998;SDS011;68071;45.062;7.356;2024-03-02T18:48:22;13.93;;;12.55;;
49998;SDS011;68071;45.062;7.356;2024-03-02T18:51:26;10.05;;;8.95;;
49998;SDS011;68071;45.062;7.356;2024-03-02T18:54:30;9.10;;;8.20;;
49998;SDS011;68071;45.062;7.356;2024-03-02T18:57:34;12.15;;;9.27;;
49998;SDS011;68071;45.062;7.356;2024-03-02T19:00:38;5.05;;;4.10;;
49998;SDS011;68071;45.062;7.356;2024-03-02T19:03:42;8.82;;;7.03;;
49998;SDS011;68071;45.062;7.356;2024-03-02T19:06:47;6.00;;;5.40;;
49998;SDS011;68071;45.062;7.356;2024-03-02T19:09:51;5.10;;;4.60;;
49998;SDS011;68071;45.062;7.356;2024-03-02T19:12:56;3.38;;;3.08;;
49998;SDS011;68071;45.062;7.356;2024-03-02T19:16:00;8.60;;;7.70;;
49998;SDS011;68071;45.062;7.356;2024-03-02T19:19:04;6.82;;;5.82;;
49998;SDS011;68071;45.062;7.356;2024-03-02T19:22:08;4.47;;;4.07;;
49998;SDS011;68071;45.062;7.356;2024-03-02T19:25:12;7.93;;;7.00;;
49998;SDS011;68071;45.062;7.356;2024-03-02T19:28:16;7.88;;;7.05;;
49998;SDS011;68071;45.062;7.356;2024-03-02T19:31:20;5.38;;;4.88;;
49998;SDS011;68071;45.062;7.356;2024-03-02T19:34:24;4.60;;;4.20;;
49998;SDS011;68071;45.062;7.356;2024-03-02T19:37:28;2.00;;;1.80;;
49998;SDS011;68071;45.062;7.356;2024-03-02T19:40:32;1.73;;;1.50;;
49998;SDS011;68071;45.062;7.356;2024-03-02T19:43:37;5.90;;;5.32;;
49998;SDS011;68071;45.062;7.356;2024-03-02T19:46:41;8.32;;;7.55;;
49998;SDS011;68071;45.062;7.356;2024-03-02T19:49:46;14.63;;;13.50;;